sensor_id;sensor_type;location;lat;lon;timestamp;temperature;humidity
53711;DHT22;39605;52.704;6.752;2022-09-20T00:02:18;9.80;99.90
53711;DHT22;39605;52.704;6.752;2022-09-20T00:04:46;9.80;99.90
53711;DHT22;39605;52.704;6.752;2022-09-20T00:07:12;9.90;99.90
53711;DHT22;39605;52.704;6.752;2022-09-20T00:09:37;9.70;99.90
53711;DHT22;39605;52.704;6.752;2022-09-20T00:12:05;9.70;99.90
53711;DHT22;39605;52.704;6.752;2022-09-20T00:14:31;9.60;99.90
53711;DHT22;39605;52.704;6.752;2022-09-20T00:16:57;9.50;99.90
53711;DHT22;39605;52.704;6.752;2022-09-20T00:19:22;9.70;99.90
53711;DHT22;39605;52.704;6.752;2022-09-20T00:21:48;9.50;99.90
53711;DHT22;39605;52.704;6.752;2022-09-20T00:24:14;9.60;99.90
53711;DHT22;39605;52.704;6.752;2022-09-20T00:26:40;9.30;99.90
53711;DHT22;39605;52.704;6.752;2022-09-20T00:29:06;9.50;99.90
53711;DHT22;39605;52.704;6.752;2022-09-20T00:31:32;9.50;99.90
53711;DHT22;39605;52.704;6.752;2022-09-20T00:33:58;9.30;99.90
53711;DHT22;39605;52.704;6.752;2022-09-20T00:36:43;9.30;99.90
53711;DHT22;39605;52.704;6.752;2022-09-20T00:39:11;9.40;99.90
53711;DHT22;39605;52.704;6.752;2022-09-20T00:41:37;9.10;99.90
53711;DHT22;39605;52.704;6.752;2022-09-20T00:44:42;9.10;99.90
53711;DHT22;39605;52.704;6.752;2022-09-20T00:50:30;9.00;99.90
53711;DHT22;39605;52.704;6.752;2022-09-20T00:55:50;8.90;99.90
53711;DHT22;39605;52.704;6.752;2022-09-20T00:58:18;8.90;99.90
53711;DHT22;39605;52.704;6.752;2022-09-20T01:00:45;8.90;99.90
53711;DHT22;39605;52.704;6.752;2022-09-20T01:03:14;8.90;99.90
53711;DHT22;39605;52.704;6.752;2022-09-20T01:05:42;8.90;99.90
53711;DHT22;39605;52.704;6.752;2022-09-20T01:08:09;8.90;99.90
53711;DHT22;39605;52.704;6.752;2022-09-20T01:10:35;8.80;99.90
53711;DHT22;39605;52.704;6.752;2022-09-20T01:13:01;8.80;99.90
53711;DHT22;39605;52.704;6.752;2022-09-20T01:15:29;8.80;99.90
53711;DHT22;39605;52.704;6.752;2022-09-20T01:17:57;8.80;99.90
53711;DHT22;39605;52.704;6.752;2022-09-20T01:20:29;8.70;99.90
53711;DHT22;39605;52.704;6.752;2022-09-20T01:28:30;8.70;99.90
53711;DHT22;39605;52.704;6.752;2022-09-20T01:31:29;8.60;99.90
53711;DHT22;39605;52.704;6.752;2022-09-20T01:34:00;8.60;99.90
53711;DHT22;39605;52.704;6.752;2022-09-20T01:36:47;8.60;99.90
53711;DHT22;39605;52.704;6.752;2022-09-20T01:42:12;8.60;99.90
53711;DHT22;39605;52.704;6.752;2022-09-20T01:44:47;8.80;99.90
53711;DHT22;39605;52.704;6.752;2022-09-20T01:47:40;8.60;99.90
53711;DHT22;39605;52.704;6.752;2022-09-20T01:50:34;8.50;99.90
53711;DHT22;39605;52.704;6.752;2022-09-20T02:15:25;8.40;99.90
53711;DHT22;39605;52.704;6.752;2022-09-20T02:18:19;8.60;99.90
53711;DHT22;39605;52.704;6.752;2022-09-20T02:24:16;8.40;99.90
53711;DHT22;39605;52.704;6.752;2022-09-20T02:40:59;8.30;99.90
53711;DHT22;39605;52.704;6.752;2022-09-20T02:43:55;8.40;99.90
53711;DHT22;39605;52.704;6.752;2022-09-20T02:46:46;8.30;99.90
53711;DHT22;39605;52.704;6.752;2022-09-20T02:55:01;8.40;99.90
53711;DHT22;39605;52.704;6.752;2022-09-20T03:00:09;8.30;99.90
53711;DHT22;39605;52.704;6.752;2022-09-20T03:09:25;8.30;99.90
53711;DHT22;39605;52.704;6.752;2022-09-20T03:15:15;8.20;99.90
53711;DHT22;39605;52.704;6.752;2022-09-20T03:17:55;8.30;99.90
53711;DHT22;39605;52.704;6.752;2022-09-20T03:20:31;8.10;99.90
53711;DHT22;39605;52.704;6.752;2022-09-20T03:23:24;8.10;99.90
53711;DHT22;39605;52.704;6.752;2022-09-20T03:31:58;8.00;99.90
53711;DHT22;39605;52.704;6.752;2022-09-20T03:37:33;7.90;99.90
53711;DHT22;39605;52.704;6.752;2022-09-20T03:42:48;7.90;99.90
53711;DHT22;39605;52.704;6.752;2022-09-20T03:54:14;7.90;99.90
53711;DHT22;39605;52.704;6.752;2022-09-20T04:02:27;7.90;99.90
53711;DHT22;39605;52.704;6.752;2022-09-20T04:05:11;7.90;99.90
53711;DHT22;39605;52.704;6.752;2022-09-20T04:21:36;7.90;99.90
53711;DHT22;39605;52.704;6.752;2022-09-20T04:24:10;7.90;99.90
53711;DHT22;39605;52.704;6.752;2022-09-20T04:26:42;7.90;99.90
53711;DHT22;39605;52.704;6.752;2022-09-20T04:29:32;7.90;99.90
53711;DHT22;39605;52.704;6.752;2022-09-20T04:38:16;8.00;99.90
53711;DHT22;39605;52.704;6.752;2022-09-20T05:00:14;8.40;99.90
53711;DHT22;39605;52.704;6.752;2022-09-20T05:28:29;8.80;99.90
53711;DHT22;39605;52.704;6.752;2022-09-20T05:31:05;8.80;99.90
53711;DHT22;39605;52.704;6.752;2022-09-20T05:33:42;8.90;99.90
53711;DHT22;39605;52.704;6.752;2022-09-20T05:39:31;9.00;99.90
53711;DHT22;39605;52.704;6.752;2022-09-20T05:42:10;9.00;99.90
53711;DHT22;39605;52.704;6.752;2022-09-20T05:44:52;9.00;99.90
53711;DHT22;39605;52.704;6.752;2022-09-20T05:47:58;9.00;99.90
53711;DHT22;39605;52.704;6.752;2022-09-20T05:59:11;9.20;99.90
53711;DHT22;39605;52.704;6.752;2022-09-20T06:12:22;9.30;99.90
53711;DHT22;39605;52.704;6.752;2022-09-20T06:23:30;9.60;99.90
53711;DHT22;39605;52.704;6.752;2022-09-20T06:26:02;9.70;99.90
53711;DHT22;39605;52.704;6.752;2022-09-20T06:28:34;9.70;99.90
53711;DHT22;39605;52.704;6.752;2022-09-20T06:31:02;9.80;99.90
53711;DHT22;39605;52.704;6.752;2022-09-20T06:33:44;9.80;99.90
53711;DHT22;39605;52.704;6.752;2022-09-20T06:36:20;9.80;99.90
53711;DHT22;39605;52.704;6.752;2022-09-20T06:39:32;9.80;99.90
53711;DHT22;39605;52.704;6.752;2022-09-20T06:42:21;9.90;99.90
53711;DHT22;39605;52.704;6.752;2022-09-20T06:44:46;10.00;99.90
53711;DHT22;39605;52.704;6.752;2022-09-20T06:47:13;10.00;99.90
53711;DHT22;39605;52.704;6.752;2022-09-20T06:49:42;10.00;99.90
53711;DHT22;39605;52.704;6.752;2022-09-20T06:52:13;10.00;99.90
53711;DHT22;39605;52.704;6.752;2022-09-20T06:54:41;10.10;99.90
53711;DHT22;39605;52.704;6.752;2022-09-20T06:57:14;10.20;99.90
53711;DHT22;39605;52.704;6.752;2022-09-20T06:59:41;10.20;99.90
53711;DHT22;39605;52.704;6.752;2022-09-20T07:02:06;10.30;99.90
53711;DHT22;39605;52.704;6.752;2022-09-20T07:04:33;10.40;99.90
53711;DHT22;39605;52.704;6.752;2022-09-20T07:07:00;10.40;99.90
53711;DHT22;39605;52.704;6.752;2022-09-20T07:09:26;10.50;99.90
53711;DHT22;39605;52.704;6.752;2022-09-20T07:11:53;10.50;99.90
53711;DHT22;39605;52.704;6.752;2022-09-20T07:14:21;10.60;99.90
53711;DHT22;39605;52.704;6.752;2022-09-20T07:16:47;10.60;99.90
53711;DHT22;39605;52.704;6.752;2022-09-20T07:19:13;10.70;99.90
53711;DHT22;39605;52.704;6.752;2022-09-20T07:21:39;10.70;99.90
53711;DHT22;39605;52.704;6.752;2022-09-20T07:24:05;10.80;99.90
53711;DHT22;39605;52.704;6.752;2022-09-20T07:26:31;10.80;99.90
53711;DHT22;39605;52.704;6.752;2022-09-20T07:28:57;10.90;99.90
53711;DHT22;39605;52.704;6.752;2022-09-20T07:31:27;10.90;99.90
53711;DHT22;39605;52.704;6.752;2022-09-20T07:33:53;11.00;99.90
53711;DHT22;39605;52.704;6.752;2022-09-20T07:36:20;11.00;99.90
53711;DHT22;39605;52.704;6.752;2022-09-20T07:38:50;11.00;99.90
53711;DHT22;39605;52.704;6.752;2022-09-20T07:41:16;11.10;99.90
53711;DHT22;39605;52.704;6.752;2022-09-20T07:43:47;11.10;99.90
53711;DHT22;39605;52.704;6.752;2022-09-20T07:46:12;11.20;99.90
53711;DHT22;39605;52.704;6.752;2022-09-20T07:48:39;11.30;99.90
53711;DHT22;39605;52.704;6.752;2022-09-20T07:51:07;11.30;99.90
53711;DHT22;39605;52.704;6.752;2022-09-20T07:53:33;11.50;99.90
53711;DHT22;39605;52.704;6.752;2022-09-20T07:56:09;11.50;99.90
53711;DHT22;39605;52.704;6.752;2022-09-20T07:58:35;11.60;99.90
53711;DHT22;39605;52.704;6.752;2022-09-20T08:01:09;11.70;99.90
53711;DHT22;39605;52.704;6.752;2022-09-20T08:03:37;11.80;99.90
53711;DHT22;39605;52.704;6.752;2022-09-20T08:06:10;12.10;99.90
53711;DHT22;39605;52.704;6.752;2022-09-20T08:08:38;12.10;99.90
53711;DHT22;39605;52.704;6.752;2022-09-20T08:13:44;12.30;99.90
53711;DHT22;39605;52.704;6.752;2022-09-20T08:16:11;12.30;99.90
53711;DHT22;39605;52.704;6.752;2022-09-20T08:18:48;12.40;99.90
53711;DHT22;39605;52.704;6.752;2022-09-20T08:21:14;12.70;99.90
53711;DHT22;39605;52.704;6.752;2022-09-20T08:23:41;12.70;99.90
53711;DHT22;39605;52.704;6.752;2022-09-20T08:26:09;12.90;99.90
53711;DHT22;39605;52.704;6.752;2022-09-20T08:28:37;13.00;99.90
53711;DHT22;39605;52.704;6.752;2022-09-20T08:31:07;13.10;99.90
53711;DHT22;39605;52.704;6.752;2022-09-20T08:33:33;13.30;99.90
53711;DHT22;39605;52.704;6.752;2022-09-20T08:36:01;13.40;99.90
53711;DHT22;39605;52.704;6.752;2022-09-20T08:38:26;13.50;99.90
53711;DHT22;39605;52.704;6.752;2022-09-20T08:41:00;13.60;99.90
53711;DHT22;39605;52.704;6.752;2022-09-20T08:43:34;13.60;99.90
53711;DHT22;39605;52.704;6.752;2022-09-20T08:46:02;13.70;99.90
53711;DHT22;39605;52.704;6.752;2022-09-20T08:48:31;13.70;99.90
53711;DHT22;39605;52.704;6.752;2022-09-20T08:51:02;13.80;99.90
53711;DHT22;39605;52.704;6.752;2022-09-20T08:53:29;13.80;99.90
53711;DHT22;39605;52.704;6.752;2022-09-20T08:55:55;13.90;99.90
53711;DHT22;39605;52.704;6.752;2022-09-20T08:58:25;14.00;99.90
53711;DHT22;39605;52.704;6.752;2022-09-20T09:00:52;14.20;99.90
53711;DHT22;39605;52.704;6.752;2022-09-20T09:03:18;14.20;99.90
53711;DHT22;39605;52.704;6.752;2022-09-20T09:05:46;14.30;99.90
53711;DHT22;39605;52.704;6.752;2022-09-20T09:08:18;14.30;99.90
53711;DHT22;39605;52.704;6.752;2022-09-20T09:10:50;14.30;99.90
53711;DHT22;39605;52.704;6.752;2022-09-20T09:16:16;14.40;99.90
53711;DHT22;39605;52.704;6.752;2022-09-20T09:18:44;14.60;99.90
53711;DHT22;39605;52.704;6.752;2022-09-20T09:24:04;14.80;99.90
53711;DHT22;39605;52.704;6.752;2022-09-20T09:26:38;14.80;99.90
53711;DHT22;39605;52.704;6.752;2022-09-20T09:31:34;15.10;99.90
53711;DHT22;39605;52.704;6.752;2022-09-20T09:34:01;15.30;99.90
53711;DHT22;39605;52.704;6.752;2022-09-20T09:36:27;15.40;99.90
53711;DHT22;39605;52.704;6.752;2022-09-20T09:39:12;15.60;99.90
53711;DHT22;39605;52.704;6.752;2022-09-20T09:41:40;15.70;99.90
53711;DHT22;39605;52.704;6.752;2022-09-20T09:44:23;15.80;99.90
53711;DHT22;39605;52.704;6.752;2022-09-20T09:46:50;15.90;99.90
53711;DHT22;39605;52.704;6.752;2022-09-20T09:49:23;15.90;99.90
53711;DHT22;39605;52.704;6.752;2022-09-20T09:52:05;15.90;99.90
53711;DHT22;39605;52.704;6.752;2022-09-20T09:54:48;16.10;99.90
53711;DHT22;39605;52.704;6.752;2022-09-20T10:22:46;17.40;99.90
53711;DHT22;39605;52.704;6.752;2022-09-20T10:25:38;17.50;99.90
53711;DHT22;39605;52.704;6.752;2022-09-20T10:28:19;18.10;99.90
53711;DHT22;39605;52.704;6.752;2022-09-20T10:31:18;18.10;99.90
53711;DHT22;39605;52.704;6.752;2022-09-20T10:39:35;18.50;99.90
53711;DHT22;39605;52.704;6.752;2022-09-20T10:43:03;18.60;99.90
53711;DHT22;39605;52.704;6.752;2022-09-20T10:45:35;18.70;99.90
53711;DHT22;39605;52.704;6.752;2022-09-20T10:50:50;18.10;99.90
53711;DHT22;39605;52.704;6.752;2022-09-20T10:53:46;18.30;99.90
53711;DHT22;39605;52.704;6.752;2022-09-20T11:07:50;17.20;99.90
53711;DHT22;39605;52.704;6.752;2022-09-20T11:10:11;16.80;99.90
53711;DHT22;39605;52.704;6.752;2022-09-20T11:12:55;16.50;99.90
53711;DHT22;39605;52.704;6.752;2022-09-20T11:15:28;16.30;99.90
53711;DHT22;39605;52.704;6.752;2022-09-20T11:20:31;16.10;99.90
53711;DHT22;39605;52.704;6.752;2022-09-20T11:23:03;16.00;99.90
53711;DHT22;39605;52.704;6.752;2022-09-20T11:25:42;15.80;99.90
53711;DHT22;39605;52.704;6.752;2022-09-20T11:31:30;15.60;99.90
53711;DHT22;39605;52.704;6.752;2022-09-20T11:34:25;15.60;99.90
53711;DHT22;39605;52.704;6.752;2022-09-20T11:36:58;15.60;99.90
53711;DHT22;39605;52.704;6.752;2022-09-20T11:42:04;15.70;99.90
53711;DHT22;39605;52.704;6.752;2022-09-20T11:44:31;15.70;99.90
53711;DHT22;39605;52.704;6.752;2022-09-20T11:47:05;15.80;99.90
53711;DHT22;39605;52.704;6.752;2022-09-20T11:55:27;16.20;99.90
53711;DHT22;39605;52.704;6.752;2022-09-20T11:58:21;16.20;99.90
53711;DHT22;39605;52.704;6.752;2022-09-20T12:00:51;16.20;99.90
53711;DHT22;39605;52.704;6.752;2022-09-20T12:03:35;16.30;99.90
53711;DHT22;39605;52.704;6.752;2022-09-20T12:06:07;16.30;99.90
53711;DHT22;39605;52.704;6.752;2022-09-20T12:08:40;16.30;99.90
53711;DHT22;39605;52.704;6.752;2022-09-20T12:11:12;16.30;99.90
53711;DHT22;39605;52.704;6.752;2022-09-20T12:13:51;16.30;99.90
53711;DHT22;39605;52.704;6.752;2022-09-20T12:16:36;16.30;99.90
53711;DHT22;39605;52.704;6.752;2022-09-20T12:19:10;16.40;99.90
53711;DHT22;39605;52.704;6.752;2022-09-20T12:24:37;16.30;99.90
53711;DHT22;39605;52.704;6.752;2022-09-20T12:30:19;16.60;99.90
53711;DHT22;39605;52.704;6.752;2022-09-20T12:32:48;16.60;99.90
53711;DHT22;39605;52.704;6.752;2022-09-20T12:38:36;16.60;99.90
53711;DHT22;39605;52.704;6.752;2022-09-20T12:41:12;16.60;99.90
53711;DHT22;39605;52.704;6.752;2022-09-20T12:46:41;16.90;99.90
53711;DHT22;39605;52.704;6.752;2022-09-20T13:05:43;18.30;99.90
53711;DHT22;39605;52.704;6.752;2022-09-20T13:08:18;18.40;99.90
53711;DHT22;39605;52.704;6.752;2022-09-20T13:11:13;18.30;99.90
53711;DHT22;39605;52.704;6.752;2022-09-20T13:16:28;17.90;99.90
53711;DHT22;39605;52.704;6.752;2022-09-20T13:19:16;17.70;99.90
53711;DHT22;39605;52.704;6.752;2022-09-20T13:25:04;16.90;99.90
53711;DHT22;39605;52.704;6.752;2022-09-20T13:27:46;16.50;99.90
53711;DHT22;39605;52.704;6.752;2022-09-20T13:32:42;16.00;99.90
53711;DHT22;39605;52.704;6.752;2022-09-20T13:37:36;15.70;99.90
53711;DHT22;39605;52.704;6.752;2022-09-20T13:40:04;15.70;99.90
53711;DHT22;39605;52.704;6.752;2022-09-20T13:42:31;15.70;99.90
53711;DHT22;39605;52.704;6.752;2022-09-20T13:44:58;15.70;99.90
53711;DHT22;39605;52.704;6.752;2022-09-20T13:47:27;15.80;99.90
53711;DHT22;39605;52.704;6.752;2022-09-20T13:50:15;15.90;99.90
53711;DHT22;39605;52.704;6.752;2022-09-20T13:52:56;15.90;99.90
53711;DHT22;39605;52.704;6.752;2022-09-20T13:55:37;16.00;99.90
53711;DHT22;39605;52.704;6.752;2022-09-20T13:58:32;16.00;99.90
53711;DHT22;39605;52.704;6.752;2022-09-20T14:01:01;16.10;99.90
53711;DHT22;39605;52.704;6.752;2022-09-20T14:03:28;16.20;99.90
53711;DHT22;39605;52.704;6.752;2022-09-20T14:06:22;16.30;99.90
53711;DHT22;39605;52.704;6.752;2022-09-20T14:08:51;16.60;99.90
53711;DHT22;39605;52.704;6.752;2022-09-20T14:11:26;16.80;99.90
53711;DHT22;39605;52.704;6.752;2022-09-20T14:13:55;16.90;99.90
53711;DHT22;39605;52.704;6.752;2022-09-20T14:16:26;16.80;99.40
53711;DHT22;39605;52.704;6.752;2022-09-20T14:18:54;16.80;98.20
53711;DHT22;39605;52.704;6.752;2022-09-20T14:21:23;16.80;97.70
53711;DHT22;39605;52.704;6.752;2022-09-20T14:27:19;16.90;99.50
53711;DHT22;39605;52.704;6.752;2022-09-20T14:29:47;17.00;99.90
53711;DHT22;39605;52.704;6.752;2022-09-20T14:34:59;17.30;98.80
53711;DHT22;39605;52.704;6.752;2022-09-20T14:37:29;17.50;98.70
53711;DHT22;39605;52.704;6.752;2022-09-20T14:39:58;17.60;97.00
53711;DHT22;39605;52.704;6.752;2022-09-20T14:42:34;17.60;98.10
53711;DHT22;39605;52.704;6.752;2022-09-20T14:45:05;17.70;96.80
53711;DHT22;39605;52.704;6.752;2022-09-20T14:47:48;17.80;96.50
53711;DHT22;39605;52.704;6.752;2022-09-20T14:53:22;17.80;95.60
53711;DHT22;39605;52.704;6.752;2022-09-20T14:55:58;17.80;95.90
53711;DHT22;39605;52.704;6.752;2022-09-20T14:58:25;17.70;95.40
53711;DHT22;39605;52.704;6.752;2022-09-20T15:03:28;17.60;93.50
53711;DHT22;39605;52.704;6.752;2022-09-20T15:05:55;17.50;95.00
53711;DHT22;39605;52.704;6.752;2022-09-20T15:08:21;17.50;95.20
53711;DHT22;39605;52.704;6.752;2022-09-20T15:10:48;17.50;95.00
53711;DHT22;39605;52.704;6.752;2022-09-20T15:13:14;17.50;93.80
53711;DHT22;39605;52.704;6.752;2022-09-20T15:15:40;17.50;94.50
53711;DHT22;39605;52.704;6.752;2022-09-20T15:18:17;17.50;94.80
53711;DHT22;39605;52.704;6.752;2022-09-20T15:20:44;17.50;98.30
53711;DHT22;39605;52.704;6.752;2022-09-20T15:23:10;17.40;96.40
53711;DHT22;39605;52.704;6.752;2022-09-20T15:25:35;17.30;95.90
53711;DHT22;39605;52.704;6.752;2022-09-20T15:28:01;17.20;96.50
53711;DHT22;39605;52.704;6.752;2022-09-20T15:30:28;17.10;96.90
53711;DHT22;39605;52.704;6.752;2022-09-20T15:32:54;17.10;98.80
53711;DHT22;39605;52.704;6.752;2022-09-20T15:35:21;17.00;96.80
53711;DHT22;39605;52.704;6.752;2022-09-20T15:37:47;17.00;98.10
53711;DHT22;39605;52.704;6.752;2022-09-20T15:40:12;17.00;97.10
53711;DHT22;39605;52.704;6.752;2022-09-20T15:42:39;17.00;98.50
53711;DHT22;39605;52.704;6.752;2022-09-20T15:45:10;17.00;98.20
53711;DHT22;39605;52.704;6.752;2022-09-20T15:47:38;16.90;99.00
53711;DHT22;39605;52.704;6.752;2022-09-20T15:50:05;16.80;98.30
53711;DHT22;39605;52.704;6.752;2022-09-20T15:52:39;16.60;97.80
53711;DHT22;39605;52.704;6.752;2022-09-20T15:55:06;16.50;97.60
53711;DHT22;39605;52.704;6.752;2022-09-20T15:57:33;16.30;98.90
53711;DHT22;39605;52.704;6.752;2022-09-20T15:59:59;16.20;99.10
53711;DHT22;39605;52.704;6.752;2022-09-20T16:02:25;16.10;99.90
53711;DHT22;39605;52.704;6.752;2022-09-20T16:04:52;16.00;99.90
53711;DHT22;39605;52.704;6.752;2022-09-20T16:07:23;16.00;99.90
53711;DHT22;39605;52.704;6.752;2022-09-20T16:09:53;15.80;99.90
53711;DHT22;39605;52.704;6.752;2022-09-20T16:12:20;15.80;99.90
53711;DHT22;39605;52.704;6.752;2022-09-20T16:14:47;15.70;99.90
53711;DHT22;39605;52.704;6.752;2022-09-20T16:17:13;15.70;99.90
53711;DHT22;39605;52.704;6.752;2022-09-20T16:19:38;15.60;99.90
53711;DHT22;39605;52.704;6.752;2022-09-20T16:22:05;15.50;99.90
53711;DHT22;39605;52.704;6.752;2022-09-20T16:24:35;15.50;99.90
53711;DHT22;39605;52.704;6.752;2022-09-20T16:27:03;15.50;99.90
53711;DHT22;39605;52.704;6.752;2022-09-20T16:29:30;15.30;99.90
53711;DHT22;39605;52.704;6.752;2022-09-20T16:31:57;15.30;99.90
53711;DHT22;39605;52.704;6.752;2022-09-20T16:34:34;15.20;99.90
53711;DHT22;39605;52.704;6.752;2022-09-20T16:39:28;15.10;99.90
53711;DHT22;39605;52.704;6.752;2022-09-20T16:42:03;15.00;99.90
53711;DHT22;39605;52.704;6.752;2022-09-20T16:44:34;14.90;99.90
53711;DHT22;39605;52.704;6.752;2022-09-20T16:47:00;14.80;99.90
53711;DHT22;39605;52.704;6.752;2022-09-20T16:49:26;14.80;99.90
53711;DHT22;39605;52.704;6.752;2022-09-20T16:51:52;14.70;99.90
53711;DHT22;39605;52.704;6.752;2022-09-20T16:54:18;14.70;99.90
53711;DHT22;39605;52.704;6.752;2022-09-20T16:56:46;14.60;99.90
53711;DHT22;39605;52.704;6.752;2022-09-20T16:59:14;14.60;99.90
53711;DHT22;39605;52.704;6.752;2022-09-20T17:01:41;14.50;99.90
53711;DHT22;39605;52.704;6.752;2022-09-20T17:04:08;14.40;99.90
53711;DHT22;39605;52.704;6.752;2022-09-20T17:06:35;14.40;99.90
53711;DHT22;39605;52.704;6.752;2022-09-20T17:09:03;14.30;99.90
53711;DHT22;39605;52.704;6.752;2022-09-20T17:11:40;14.20;99.90
53711;DHT22;39605;52.704;6.752;2022-09-20T17:14:06;14.20;99.90
53711;DHT22;39605;52.704;6.752;2022-09-20T17:16:38;14.10;99.90
53711;DHT22;39605;52.704;6.752;2022-09-20T17:19:11;14.10;99.90
53711;DHT22;39605;52.704;6.752;2022-09-20T17:21:42;14.00;99.90
53711;DHT22;39605;52.704;6.752;2022-09-20T17:24:13;13.90;99.90
53711;DHT22;39605;52.704;6.752;2022-09-20T17:26:41;13.90;99.90
53711;DHT22;39605;52.704;6.752;2022-09-20T17:29:10;13.80;99.90
53711;DHT22;39605;52.704;6.752;2022-09-20T17:31:40;13.70;99.90
53711;DHT22;39605;52.704;6.752;2022-09-20T17:34:09;13.60;99.90
53711;DHT22;39605;52.704;6.752;2022-09-20T17:36:40;13.50;99.90
53711;DHT22;39605;52.704;6.752;2022-09-20T17:39:07;13.40;99.90
53711;DHT22;39605;52.704;6.752;2022-09-20T17:41:38;13.40;99.90
53711;DHT22;39605;52.704;6.752;2022-09-20T17:44:04;13.30;99.90
53711;DHT22;39605;52.704;6.752;2022-09-20T17:46:35;13.20;99.90
53711;DHT22;39605;52.704;6.752;2022-09-20T17:49:04;13.10;99.90
53711;DHT22;39605;52.704;6.752;2022-09-20T17:51:38;13.00;99.90
53711;DHT22;39605;52.704;6.752;2022-09-20T17:54:05;12.90;99.90
53711;DHT22;39605;52.704;6.752;2022-09-20T17:56:31;12.80;99.90
53711;DHT22;39605;52.704;6.752;2022-09-20T17:58:58;12.70;99.90
53711;DHT22;39605;52.704;6.752;2022-09-20T18:01:25;12.70;99.90
53711;DHT22;39605;52.704;6.752;2022-09-20T18:03:51;12.70;99.90
53711;DHT22;39605;52.704;6.752;2022-09-20T18:08:47;12.40;99.90
53711;DHT22;39605;52.704;6.752;2022-09-20T18:11:15;12.40;99.90
53711;DHT22;39605;52.704;6.752;2022-09-20T18:13:41;12.40;99.90
53711;DHT22;39605;52.704;6.752;2022-09-20T18:16:11;12.30;99.90
53711;DHT22;39605;52.704;6.752;2022-09-20T18:18:42;12.30;99.90
53711;DHT22;39605;52.704;6.752;2022-09-20T18:21:22;12.20;99.90
53711;DHT22;39605;52.704;6.752;2022-09-20T18:23:49;12.10;99.90
53711;DHT22;39605;52.704;6.752;2022-09-20T18:26:22;12.10;99.90
53711;DHT22;39605;52.704;6.752;2022-09-20T18:31:17;12.20;99.90
53711;DHT22;39605;52.704;6.752;2022-09-20T18:33:43;12.10;99.90
53711;DHT22;39605;52.704;6.752;2022-09-20T18:36:09;12.10;99.90
53711;DHT22;39605;52.704;6.752;2022-09-20T18:38:35;12.10;99.90
53711;DHT22;39605;52.704;6.752;2022-09-20T18:41:02;12.00;99.90
53711;DHT22;39605;52.704;6.752;2022-09-20T18:43:31;12.00;99.90
53711;DHT22;39605;52.704;6.752;2022-09-20T18:45:58;12.00;99.90
53711;DHT22;39605;52.704;6.752;2022-09-20T18:48:25;11.90;99.90
53711;DHT22;39605;52.704;6.752;2022-09-20T18:51:04;11.90;99.90
53711;DHT22;39605;52.704;6.752;2022-09-20T18:53:32;11.90;99.90
53711;DHT22;39605;52.704;6.752;2022-09-20T18:56:19;11.80;99.90
53711;DHT22;39605;52.704;6.752;2022-09-20T18:58:46;11.80;99.90
53711;DHT22;39605;52.704;6.752;2022-09-20T19:20:36;11.60;99.90
53711;DHT22;39605;52.704;6.752;2022-09-20T19:28:43;11.50;99.90
53711;DHT22;39605;52.704;6.752;2022-09-20T19:31:29;11.50;99.90
53711;DHT22;39605;52.704;6.752;2022-09-20T19:33:58;11.50;99.90
53711;DHT22;39605;52.704;6.752;2022-09-20T19:42:11;11.40;99.90
53711;DHT22;39605;52.704;6.752;2022-09-20T19:47:48;11.40;99.90
53711;DHT22;39605;52.704;6.752;2022-09-20T19:52:52;11.30;99.90
53711;DHT22;39605;52.704;6.752;2022-09-20T19:55:18;11.30;99.90
53711;DHT22;39605;52.704;6.752;2022-09-20T19:57:46;11.20;99.90
53711;DHT22;39605;52.704;6.752;2022-09-20T20:00:13;11.20;99.90
53711;DHT22;39605;52.704;6.752;2022-09-20T20:02:41;11.20;99.90
53711;DHT22;39605;52.704;6.752;2022-09-20T20:05:13;11.20;99.90
53711;DHT22;39605;52.704;6.752;2022-09-20T20:16:00;11.10;99.90
53711;DHT22;39605;52.704;6.752;2022-09-20T20:18:30;11.10;99.90
53711;DHT22;39605;52.704;6.752;2022-09-20T20:20:58;11.10;99.90
53711;DHT22;39605;52.704;6.752;2022-09-20T20:26:22;11.00;99.90
53711;DHT22;39605;52.704;6.752;2022-09-20T20:28:49;11.00;99.90
53711;DHT22;39605;52.704;6.752;2022-09-20T20:31:16;11.00;99.90
53711;DHT22;39605;52.704;6.752;2022-09-20T20:33:41;10.90;99.90
53711;DHT22;39605;52.704;6.752;2022-09-20T20:36:08;10.90;99.90
53711;DHT22;39605;52.704;6.752;2022-09-20T20:38:37;10.80;99.90
53711;DHT22;39605;52.704;6.752;2022-09-20T20:43:33;10.70;99.90
53711;DHT22;39605;52.704;6.752;2022-09-20T20:46:01;10.70;99.90
53711;DHT22;39605;52.704;6.752;2022-09-20T20:48:27;10.60;99.90
53711;DHT22;39605;52.704;6.752;2022-09-20T20:51:22;10.60;99.90
53711;DHT22;39605;52.704;6.752;2022-09-20T20:53:50;10.50;99.90
53711;DHT22;39605;52.704;6.752;2022-09-20T20:56:24;10.50;99.90
53711;DHT22;39605;52.704;6.752;2022-09-20T20:58:50;10.40;99.90
53711;DHT22;39605;52.704;6.752;2022-09-20T21:01:28;10.40;99.90
53711;DHT22;39605;52.704;6.752;2022-09-20T21:03:55;10.30;99.90
53711;DHT22;39605;52.704;6.752;2022-09-20T21:06:23;10.30;99.90
53711;DHT22;39605;52.704;6.752;2022-09-20T21:08:50;10.20;99.90
53711;DHT22;39605;52.704;6.752;2022-09-20T21:11:21;10.20;99.90
53711;DHT22;39605;52.704;6.752;2022-09-20T21:13:51;10.10;99.90
53711;DHT22;39605;52.704;6.752;2022-09-20T21:16:22;10.10;99.90
53711;DHT22;39605;52.704;6.752;2022-09-20T21:18:49;10.00;99.90
53711;DHT22;39605;52.704;6.752;2022-09-20T21:21:18;10.00;99.90
53711;DHT22;39605;52.704;6.752;2022-09-20T21:23:46;9.90;99.90
53711;DHT22;39605;52.704;6.752;2022-09-20T21:26:13;9.90;99.90
53711;DHT22;39605;52.704;6.752;2022-09-20T21:28:50;9.90;99.90
53711;DHT22;39605;52.704;6.752;2022-09-20T21:31:17;9.90;99.90
53711;DHT22;39605;52.704;6.752;2022-09-20T21:33:44;9.90;99.90
53711;DHT22;39605;52.704;6.752;2022-09-20T21:36:21;9.90;99.90
53711;DHT22;39605;52.704;6.752;2022-09-20T21:38:47;9.80;99.90
53711;DHT22;39605;52.704;6.752;2022-09-20T21:41:16;9.90;99.90
53711;DHT22;39605;52.704;6.752;2022-09-20T21:43:43;9.80;99.90
53711;DHT22;39605;52.704;6.752;2022-09-20T21:46:16;9.80;99.90
53711;DHT22;39605;52.704;6.752;2022-09-20T21:48:43;9.70;99.90
53711;DHT22;39605;52.704;6.752;2022-09-20T21:51:10;9.60;99.90
53711;DHT22;39605;52.704;6.752;2022-09-20T21:53:40;9.70;99.90
53711;DHT22;39605;52.704;6.752;2022-09-20T21:56:08;9.60;99.90
53711;DHT22;39605;52.704;6.752;2022-09-20T21:58:34;9.60;99.90
53711;DHT22;39605;52.704;6.752;2022-09-20T22:01:05;9.60;99.90
53711;DHT22;39605;52.704;6.752;2022-09-20T22:03:35;9.60;99.90
53711;DHT22;39605;52.704;6.752;2022-09-20T22:08:30;9.50;99.90
53711;DHT22;39605;52.704;6.752;2022-09-20T22:10:56;9.50;99.90
53711;DHT22;39605;52.704;6.752;2022-09-20T22:13:23;9.40;99.90
53711;DHT22;39605;52.704;6.752;2022-09-20T22:15:49;9.40;99.90
53711;DHT22;39605;52.704;6.752;2022-09-20T22:18:15;9.40;99.90
53711;DHT22;39605;52.704;6.752;2022-09-20T22:20:40;9.30;99.90